sensor_id;sensor_type;location;lat;lon;timestamp;temperature;humidity
66928;DHT22;59882;45.624;11.698;2023-04-25T00:02:02;14.40;71.10
66928;DHT22;59882;45.624;11.698;2023-04-25T00:04:28;14.40;71.50
66928;DHT22;59882;45.624;11.698;2023-04-25T00:06:55;14.40;71.90
66928;DHT22;59882;45.624;11.698;2023-04-25T00:09:21;14.40;72.00
66928;DHT22;59882;45.624;11.698;2023-04-25T00:11:47;14.40;71.90
66928;DHT22;59882;45.624;11.698;2023-04-25T00:14:13;14.40;71.20
66928;DHT22;59882;45.624;11.698;2023-04-25T00:16:39;14.40;71.40
66928;DHT22;59882;45.624;11.698;2023-04-25T00:19:06;14.40;71.60
66928;DHT22;59882;45.624;11.698;2023-04-25T00:21:33;14.40;71.10
66928;DHT22;59882;45.624;11.698;2023-04-25T00:23:59;14.40;71.40
66928;DHT22;59882;45.624;11.698;2023-04-25T00:26:25;14.40;71.40
66928;DHT22;59882;45.624;11.698;2023-04-25T00:28:51;14.40;71.50
66928;DHT22;59882;45.624;11.698;2023-04-25T00:31:16;14.40;71.70
66928;DHT22;59882;45.624;11.698;2023-04-25T00:33:42;14.30;71.70
66928;DHT22;59882;45.624;11.698;2023-04-25T00:36:08;14.30;72.20
66928;DHT22;59882;45.624;11.698;2023-04-25T00:38:34;14.20;72.40
66928;DHT22;59882;45.624;11.698;2023-04-25T00:41:00;14.20;72.60
66928;DHT22;59882;45.624;11.698;2023-04-25T00:43:26;14.10;72.70
66928;DHT22;59882;45.624;11.698;2023-04-25T00:45:52;14.10;72.30
66928;DHT22;59882;45.624;11.698;2023-04-25T00:48:20;14.10;73.00
66928;DHT22;59882;45.624;11.698;2023-04-25T00:50:55;14.10;73.20
66928;DHT22;59882;45.624;11.698;2023-04-25T00:53:22;14.10;73.50
66928;DHT22;59882;45.624;11.698;2023-04-25T00:55:48;14.00;73.50
66928;DHT22;59882;45.624;11.698;2023-04-25T00:58:16;14.00;73.30
66928;DHT22;59882;45.624;11.698;2023-04-25T01:00:42;14.00;73.30
66928;DHT22;59882;45.624;11.698;2023-04-25T01:03:09;14.00;73.60
66928;DHT22;59882;45.624;11.698;2023-04-25T01:05:35;14.00;73.90
66928;DHT22;59882;45.624;11.698;2023-04-25T01:08:01;14.00;73.80
66928;DHT22;59882;45.624;11.698;2023-04-25T01:10:26;14.00;73.80
66928;DHT22;59882;45.624;11.698;2023-04-25T01:12:52;14.00;73.90
66928;DHT22;59882;45.624;11.698;2023-04-25T01:15:18;14.00;74.10
66928;DHT22;59882;45.624;11.698;2023-04-25T01:17:44;14.00;73.70
66928;DHT22;59882;45.624;11.698;2023-04-25T01:20:11;14.00;73.60
66928;DHT22;59882;45.624;11.698;2023-04-25T01:22:37;14.00;73.70
66928;DHT22;59882;45.624;11.698;2023-04-25T01:25:04;14.00;73.90
66928;DHT22;59882;45.624;11.698;2023-04-25T01:27:30;14.00;73.40
66928;DHT22;59882;45.624;11.698;2023-04-25T01:29:56;14.00;73.60
66928;DHT22;59882;45.624;11.698;2023-04-25T01:32:23;14.10;73.00
66928;DHT22;59882;45.624;11.698;2023-04-25T01:34:49;14.10;73.20
66928;DHT22;59882;45.624;11.698;2023-04-25T01:37:16;14.10;73.00
66928;DHT22;59882;45.624;11.698;2023-04-25T01:39:42;14.20;72.70
66928;DHT22;59882;45.624;11.698;2023-04-25T01:42:08;14.20;72.70
66928;DHT22;59882;45.624;11.698;2023-04-25T01:44:33;14.20;72.60
66928;DHT22;59882;45.624;11.698;2023-04-25T01:46:59;14.20;73.00
66928;DHT22;59882;45.624;11.698;2023-04-25T01:49:25;14.10;72.60
66928;DHT22;59882;45.624;11.698;2023-04-25T01:51:50;14.10;72.70
66928;DHT22;59882;45.624;11.698;2023-04-25T01:54:17;14.00;72.60
66928;DHT22;59882;45.624;11.698;2023-04-25T01:56:43;14.00;72.60
66928;DHT22;59882;45.624;11.698;2023-04-25T01:59:09;14.00;72.50
66928;DHT22;59882;45.624;11.698;2023-04-25T02:01:35;14.00;72.50
66928;DHT22;59882;45.624;11.698;2023-04-25T02:04:00;14.00;72.30
66928;DHT22;59882;45.624;11.698;2023-04-25T02:06:26;14.00;72.20
66928;DHT22;59882;45.624;11.698;2023-04-25T02:08:51;14.00;72.10
66928;DHT22;59882;45.624;11.698;2023-04-25T02:11:17;14.00;72.40
66928;DHT22;59882;45.624;11.698;2023-04-25T02:13:43;14.00;72.10
66928;DHT22;59882;45.624;11.698;2023-04-25T02:16:08;14.00;72.70
66928;DHT22;59882;45.624;11.698;2023-04-25T02:18:34;14.00;72.80
66928;DHT22;59882;45.624;11.698;2023-04-25T02:21:02;14.00;72.90
66928;DHT22;59882;45.624;11.698;2023-04-25T02:23:28;14.00;73.40
66928;DHT22;59882;45.624;11.698;2023-04-25T02:25:54;14.00;73.40
66928;DHT22;59882;45.624;11.698;2023-04-25T02:28:21;13.90;73.40
66928;DHT22;59882;45.624;11.698;2023-04-25T02:30:46;13.90;73.60
66928;DHT22;59882;45.624;11.698;2023-04-25T02:33:12;13.90;73.20
66928;DHT22;59882;45.624;11.698;2023-04-25T02:35:38;13.90;73.10
66928;DHT22;59882;45.624;11.698;2023-04-25T02:38:03;13.90;72.90
66928;DHT22;59882;45.624;11.698;2023-04-25T02:40:29;13.90;72.50
66928;DHT22;59882;45.624;11.698;2023-04-25T02:42:55;13.90;72.40
66928;DHT22;59882;45.624;11.698;2023-04-25T02:45:21;13.90;72.20
66928;DHT22;59882;45.624;11.698;2023-04-25T02:47:47;13.90;72.40
66928;DHT22;59882;45.624;11.698;2023-04-25T02:50:12;13.90;72.10
66928;DHT22;59882;45.624;11.698;2023-04-25T02:52:38;13.90;72.00
66928;DHT22;59882;45.624;11.698;2023-04-25T02:55:04;13.90;71.60
66928;DHT22;59882;45.624;11.698;2023-04-25T02:57:29;13.90;71.40
66928;DHT22;59882;45.624;11.698;2023-04-25T02:59:55;13.90;71.10
66928;DHT22;59882;45.624;11.698;2023-04-25T03:02:21;13.90;71.00
66928;DHT22;59882;45.624;11.698;2023-04-25T03:04:46;13.90;71.30
66928;DHT22;59882;45.624;11.698;2023-04-25T03:07:12;13.90;71.50
66928;DHT22;59882;45.624;11.698;2023-04-25T03:09:37;13.90;71.70
66928;DHT22;59882;45.624;11.698;2023-04-25T03:12:03;13.90;72.00
66928;DHT22;59882;45.624;11.698;2023-04-25T03:14:29;13.90;71.80
66928;DHT22;59882;45.624;11.698;2023-04-25T03:16:55;13.90;71.80
66928;DHT22;59882;45.624;11.698;2023-04-25T03:19:20;13.90;71.70
66928;DHT22;59882;45.624;11.698;2023-04-25T03:21:46;13.90;71.60
66928;DHT22;59882;45.624;11.698;2023-04-25T03:24:12;13.90;71.70
66928;DHT22;59882;45.624;11.698;2023-04-25T03:26:37;13.90;71.70
66928;DHT22;59882;45.624;11.698;2023-04-25T03:29:03;13.90;72.00
66928;DHT22;59882;45.624;11.698;2023-04-25T03:31:29;13.90;72.30
66928;DHT22;59882;45.624;11.698;2023-04-25T03:33:54;13.90;72.00
66928;DHT22;59882;45.624;11.698;2023-04-25T03:36:20;13.90;71.80
66928;DHT22;59882;45.624;11.698;2023-04-25T03:38:45;13.90;71.90
66928;DHT22;59882;45.624;11.698;2023-04-25T03:41:11;13.90;71.60
66928;DHT22;59882;45.624;11.698;2023-04-25T03:43:37;14.00;71.60
66928;DHT22;59882;45.624;11.698;2023-04-25T03:46:02;14.00;71.20
66928;DHT22;59882;45.624;11.698;2023-04-25T03:48:28;13.90;71.10
66928;DHT22;59882;45.624;11.698;2023-04-25T03:50:54;13.90;71.20
66928;DHT22;59882;45.624;11.698;2023-04-25T03:53:20;13.90;71.00
66928;DHT22;59882;45.624;11.698;2023-04-25T03:55:46;13.90;70.90
66928;DHT22;59882;45.624;11.698;2023-04-25T03:58:11;13.90;70.80
66928;DHT22;59882;45.624;11.698;2023-04-25T04:00:37;13.90;70.80
66928;DHT22;59882;45.624;11.698;2023-04-25T04:03:02;13.90;70.90
66928;DHT22;59882;45.624;11.698;2023-04-25T04:05:28;13.90;70.90
66928;DHT22;59882;45.624;11.698;2023-04-25T04:07:54;13.90;70.90
66928;DHT22;59882;45.624;11.698;2023-04-25T04:10:21;13.90;70.90
66928;DHT22;59882;45.624;11.698;2023-04-25T04:12:46;13.90;70.80
66928;DHT22;59882;45.624;11.698;2023-04-25T04:15:12;13.90;70.60
66928;DHT22;59882;45.624;11.698;2023-04-25T04:17:38;13.80;71.00
66928;DHT22;59882;45.624;11.698;2023-04-25T04:20:04;13.80;71.40
66928;DHT22;59882;45.624;11.698;2023-04-25T04:22:31;13.80;71.40
66928;DHT22;59882;45.624;11.698;2023-04-25T04:24:57;13.80;71.60
66928;DHT22;59882;45.624;11.698;2023-04-25T04:27:23;13.80;72.20
66928;DHT22;59882;45.624;11.698;2023-04-25T04:29:49;13.70;72.90
66928;DHT22;59882;45.624;11.698;2023-04-25T04:32:16;13.80;73.10
66928;DHT22;59882;45.624;11.698;2023-04-25T04:34:42;13.80;73.00
66928;DHT22;59882;45.624;11.698;2023-04-25T04:37:08;13.80;73.50
66928;DHT22;59882;45.624;11.698;2023-04-25T04:39:35;13.70;74.10
66928;DHT22;59882;45.624;11.698;2023-04-25T04:42:01;13.70;73.60
66928;DHT22;59882;45.624;11.698;2023-04-25T04:44:30;13.70;73.60
66928;DHT22;59882;45.624;11.698;2023-04-25T04:46:59;13.70;73.70
66928;DHT22;59882;45.624;11.698;2023-04-25T04:49:25;13.70;74.20
66928;DHT22;59882;45.624;11.698;2023-04-25T04:51:51;13.60;74.40
66928;DHT22;59882;45.624;11.698;2023-04-25T04:54:17;13.60;74.00
66928;DHT22;59882;45.624;11.698;2023-04-25T04:56:43;13.60;74.60
66928;DHT22;59882;45.624;11.698;2023-04-25T04:59:09;13.60;74.60
66928;DHT22;59882;45.624;11.698;2023-04-25T05:01:34;13.60;74.70
66928;DHT22;59882;45.624;11.698;2023-04-25T05:04:03;13.60;75.40
66928;DHT22;59882;45.624;11.698;2023-04-25T05:06:30;13.60;76.10
66928;DHT22;59882;45.624;11.698;2023-04-25T05:08:57;13.60;75.80
66928;DHT22;59882;45.624;11.698;2023-04-25T05:11:23;13.60;76.00
66928;DHT22;59882;45.624;11.698;2023-04-25T05:13:50;13.60;76.30
66928;DHT22;59882;45.624;11.698;2023-04-25T05:16:16;13.60;76.60
66928;DHT22;59882;45.624;11.698;2023-04-25T05:18:42;13.60;76.90
66928;DHT22;59882;45.624;11.698;2023-04-25T05:21:08;13.60;77.10
66928;DHT22;59882;45.624;11.698;2023-04-25T05:23:33;13.60;77.20
66928;DHT22;59882;45.624;11.698;2023-04-25T05:25:59;13.50;76.70
66928;DHT22;59882;45.624;11.698;2023-04-25T05:28:25;13.50;76.50
66928;DHT22;59882;45.624;11.698;2023-04-25T05:30:50;13.40;76.00
66928;DHT22;59882;45.624;11.698;2023-04-25T05:33:16;13.40;76.70
66928;DHT22;59882;45.624;11.698;2023-04-25T05:35:42;13.40;76.70
66928;DHT22;59882;45.624;11.698;2023-04-25T05:38:08;13.40;77.10
66928;DHT22;59882;45.624;11.698;2023-04-25T05:40:33;13.20;76.90
66928;DHT22;59882;45.624;11.698;2023-04-25T05:42:59;13.10;77.50
66928;DHT22;59882;45.624;11.698;2023-04-25T05:45:25;13.10;77.70
66928;DHT22;59882;45.624;11.698;2023-04-25T05:47:50;13.00;77.80
66928;DHT22;59882;45.624;11.698;2023-04-25T05:50:16;13.10;78.30
66928;DHT22;59882;45.624;11.698;2023-04-25T05:52:41;13.10;78.70
66928;DHT22;59882;45.624;11.698;2023-04-25T05:55:07;13.10;78.20
66928;DHT22;59882;45.624;11.698;2023-04-25T05:57:33;13.10;77.90
66928;DHT22;59882;45.624;11.698;2023-04-25T05:59:59;13.20;77.60
66928;DHT22;59882;45.624;11.698;2023-04-25T06:02:24;13.10;78.50
66928;DHT22;59882;45.624;11.698;2023-04-25T06:04:51;13.20;77.90
66928;DHT22;59882;45.624;11.698;2023-04-25T06:07:17;13.10;78.20
66928;DHT22;59882;45.624;11.698;2023-04-25T06:09:43;13.10;78.40
66928;DHT22;59882;45.624;11.698;2023-04-25T06:12:09;13.10;78.50
66928;DHT22;59882;45.624;11.698;2023-04-25T06:14:35;13.00;78.90
66928;DHT22;59882;45.624;11.698;2023-04-25T06:17:01;13.10;78.50
66928;DHT22;59882;45.624;11.698;2023-04-25T06:19:32;13.00;78.90
66928;DHT22;59882;45.624;11.698;2023-04-25T06:21:58;12.90;79.00
66928;DHT22;59882;45.624;11.698;2023-04-25T06:24:24;12.80;78.80
66928;DHT22;59882;45.624;11.698;2023-04-25T06:26:49;12.80;79.50
66928;DHT22;59882;45.624;11.698;2023-04-25T06:29:15;12.80;79.30
66928;DHT22;59882;45.624;11.698;2023-04-25T06:31:40;12.80;79.60
66928;DHT22;59882;45.624;11.698;2023-04-25T06:34:06;12.90;79.70
66928;DHT22;59882;45.624;11.698;2023-04-25T06:36:32;12.90;80.10
66928;DHT22;59882;45.624;11.698;2023-04-25T06:38:57;12.90;80.40
66928;DHT22;59882;45.624;11.698;2023-04-25T06:41:23;12.90;80.40
66928;DHT22;59882;45.624;11.698;2023-04-25T06:43:48;12.80;79.50
66928;DHT22;59882;45.624;11.698;2023-04-25T06:46:14;12.70;79.80
66928;DHT22;59882;45.624;11.698;2023-04-25T06:48:40;12.70;79.70
66928;DHT22;59882;45.624;11.698;2023-04-25T06:51:05;12.60;79.30
66928;DHT22;59882;45.624;11.698;2023-04-25T06:53:31;12.60;78.80
66928;DHT22;59882;45.624;11.698;2023-04-25T06:55:56;12.60;78.80
66928;DHT22;59882;45.624;11.698;2023-04-25T06:58:22;12.60;78.90
66928;DHT22;59882;45.624;11.698;2023-04-25T07:00:48;12.50;78.80
66928;DHT22;59882;45.624;11.698;2023-04-25T07:03:13;12.50;78.60
66928;DHT22;59882;45.624;11.698;2023-04-25T07:05:39;12.60;79.00
66928;DHT22;59882;45.624;11.698;2023-04-25T07:08:05;12.60;78.90
66928;DHT22;59882;45.624;11.698;2023-04-25T07:10:30;12.60;79.10
66928;DHT22;59882;45.624;11.698;2023-04-25T07:12:56;12.60;78.80
66928;DHT22;59882;45.624;11.698;2023-04-25T07:15:21;12.60;78.70
66928;DHT22;59882;45.624;11.698;2023-04-25T07:17:47;12.60;78.80
66928;DHT22;59882;45.624;11.698;2023-04-25T07:20:12;12.70;79.00
66928;DHT22;59882;45.624;11.698;2023-04-25T07:22:38;12.60;79.10
66928;DHT22;59882;45.624;11.698;2023-04-25T07:25:04;12.70;78.60
66928;DHT22;59882;45.624;11.698;2023-04-25T07:27:30;12.70;79.10
66928;DHT22;59882;45.624;11.698;2023-04-25T07:29:56;12.70;79.00
66928;DHT22;59882;45.624;11.698;2023-04-25T07:32:22;12.70;79.00
66928;DHT22;59882;45.624;11.698;2023-04-25T07:34:48;12.70;78.90
66928;DHT22;59882;45.624;11.698;2023-04-25T07:37:14;12.70;79.20
66928;DHT22;59882;45.624;11.698;2023-04-25T07:39:40;12.70;78.90
66928;DHT22;59882;45.624;11.698;2023-04-25T07:42:06;12.70;78.90
66928;DHT22;59882;45.624;11.698;2023-04-25T07:44:34;12.70;79.10
66928;DHT22;59882;45.624;11.698;2023-04-25T07:47:07;12.70;79.30
66928;DHT22;59882;45.624;11.698;2023-04-25T07:49:34;12.60;79.20
66928;DHT22;59882;45.624;11.698;2023-04-25T07:52:01;12.60;79.30
66928;DHT22;59882;45.624;11.698;2023-04-25T07:54:27;12.60;79.30
66928;DHT22;59882;45.624;11.698;2023-04-25T07:56:52;12.60;79.40
66928;DHT22;59882;45.624;11.698;2023-04-25T07:59:18;12.60;79.30
66928;DHT22;59882;45.624;11.698;2023-04-25T08:01:43;12.60;79.10
66928;DHT22;59882;45.624;11.698;2023-04-25T08:04:09;12.60;79.60
66928;DHT22;59882;45.624;11.698;2023-04-25T08:06:35;12.60;79.80
66928;DHT22;59882;45.624;11.698;2023-04-25T08:09:01;12.60;80.00
66928;DHT22;59882;45.624;11.698;2023-04-25T08:11:28;12.60;79.30
66928;DHT22;59882;45.624;11.698;2023-04-25T08:13:53;12.70;80.00
66928;DHT22;59882;45.624;11.698;2023-04-25T08:16:19;12.70;80.40
66928;DHT22;59882;45.624;11.698;2023-04-25T08:18:45;12.70;80.00
66928;DHT22;59882;45.624;11.698;2023-04-25T08:21:10;12.70;79.60
66928;DHT22;59882;45.624;11.698;2023-04-25T08:23:37;12.70;80.50
66928;DHT22;59882;45.624;11.698;2023-04-25T08:26:03;12.60;80.20
66928;DHT22;59882;45.624;11.698;2023-04-25T08:28:30;12.50;80.40
66928;DHT22;59882;45.624;11.698;2023-04-25T08:30:55;12.50;80.40
66928;DHT22;59882;45.624;11.698;2023-04-25T08:33:21;12.60;80.20
66928;DHT22;59882;45.624;11.698;2023-04-25T08:35:47;12.60;80.60
66928;DHT22;59882;45.624;11.698;2023-04-25T08:38:12;12.70;80.90
66928;DHT22;59882;45.624;11.698;2023-04-25T08:40:39;12.80;81.10
66928;DHT22;59882;45.624;11.698;2023-04-25T08:43:06;12.90;81.30
66928;DHT22;59882;45.624;11.698;2023-04-25T08:45:39;12.90;81.30
66928;DHT22;59882;45.624;11.698;2023-04-25T08:48:10;13.10;81.60
66928;DHT22;59882;45.624;11.698;2023-04-25T08:50:40;13.20;81.30
66928;DHT22;59882;45.624;11.698;2023-04-25T08:53:09;13.20;80.40
66928;DHT22;59882;45.624;11.698;2023-04-25T08:55:37;13.30;81.20
66928;DHT22;59882;45.624;11.698;2023-04-25T08:58:06;13.30;81.10
66928;DHT22;59882;45.624;11.698;2023-04-25T09:00:32;13.20;81.00
66928;DHT22;59882;45.624;11.698;2023-04-25T09:02:58;13.10;80.50
66928;DHT22;59882;45.624;11.698;2023-04-25T09:05:24;13.10;80.50
66928;DHT22;59882;45.624;11.698;2023-04-25T09:07:50;13.10;80.70
66928;DHT22;59882;45.624;11.698;2023-04-25T09:10:16;13.10;81.30
66928;DHT22;59882;45.624;11.698;2023-04-25T09:12:42;13.20;80.60
66928;DHT22;59882;45.624;11.698;2023-04-25T09:15:12;13.30;81.30
66928;DHT22;59882;45.624;11.698;2023-04-25T09:17:41;13.40;81.10
66928;DHT22;59882;45.624;11.698;2023-04-25T09:20:11;13.60;80.90
66928;DHT22;59882;45.624;11.698;2023-04-25T09:22:38;13.80;80.70
66928;DHT22;59882;45.624;11.698;2023-04-25T09:25:13;13.90;79.80
66928;DHT22;59882;45.624;11.698;2023-04-25T09:27:52;14.00;79.80
66928;DHT22;59882;45.624;11.698;2023-04-25T09:30:17;14.20;79.40
66928;DHT22;59882;45.624;11.698;2023-04-25T09:32:43;14.30;80.30
66928;DHT22;59882;45.624;11.698;2023-04-25T09:35:10;14.40;78.40
66928;DHT22;59882;45.624;11.698;2023-04-25T09:37:36;14.40;77.90
66928;DHT22;59882;45.624;11.698;2023-04-25T09:40:05;14.50;77.50
66928;DHT22;59882;45.624;11.698;2023-04-25T09:42:32;14.60;77.50
66928;DHT22;59882;45.624;11.698;2023-04-25T09:45:00;14.70;77.50
66928;DHT22;59882;45.624;11.698;2023-04-25T09:47:29;14.80;77.90
66928;DHT22;59882;45.624;11.698;2023-04-25T09:49:55;14.90;77.80
66928;DHT22;59882;45.624;11.698;2023-04-25T09:52:24;15.00;77.00
66928;DHT22;59882;45.624;11.698;2023-04-25T09:54:51;15.10;76.60
66928;DHT22;59882;45.624;11.698;2023-04-25T09:57:21;15.10;74.90
66928;DHT22;59882;45.624;11.698;2023-04-25T09:59:49;15.20;75.80
66928;DHT22;59882;45.624;11.698;2023-04-25T10:02:24;15.30;75.90
66928;DHT22;59882;45.624;11.698;2023-04-25T10:04:52;15.40;75.00
66928;DHT22;59882;45.624;11.698;2023-04-25T10:07:22;15.40;75.60
66928;DHT22;59882;45.624;11.698;2023-04-25T10:09:58;15.60;76.40
66928;DHT22;59882;45.624;11.698;2023-04-25T10:12:28;15.60;75.10
66928;DHT22;59882;45.624;11.698;2023-04-25T10:14:54;15.70;74.40
66928;DHT22;59882;45.624;11.698;2023-04-25T10:17:21;15.90;74.60
66928;DHT22;59882;45.624;11.698;2023-04-25T10:19:47;15.90;71.90
66928;DHT22;59882;45.624;11.698;2023-04-25T10:22:18;15.90;72.80
66928;DHT22;59882;45.624;11.698;2023-04-25T10:24:46;16.00;72.50
66928;DHT22;59882;45.624;11.698;2023-04-25T10:27:12;16.00;70.40
66928;DHT22;59882;45.624;11.698;2023-04-25T10:29:38;16.10;72.50
66928;DHT22;59882;45.624;11.698;2023-04-25T10:32:04;16.20;69.80
66928;DHT22;59882;45.624;11.698;2023-04-25T10:34:43;16.20;68.80
66928;DHT22;59882;45.624;11.698;2023-04-25T10:37:12;16.30;69.30
66928;DHT22;59882;45.624;11.698;2023-04-25T10:39:40;16.30;67.80
66928;DHT22;59882;45.624;11.698;2023-04-25T10:42:06;16.30;68.80
66928;DHT22;59882;45.624;11.698;2023-04-25T10:44:33;16.30;67.90
66928;DHT22;59882;45.624;11.698;2023-04-25T10:47:01;16.40;68.90
66928;DHT22;59882;45.624;11.698;2023-04-25T10:49:42;16.40;70.10
66928;DHT22;59882;45.624;11.698;2023-04-25T10:54:46;16.60;67.40
66928;DHT22;59882;45.624;11.698;2023-04-25T10:57:50;16.60;67.80
66928;DHT22;59882;45.624;11.698;2023-04-25T11:00:19;16.70;68.40
66928;DHT22;59882;45.624;11.698;2023-04-25T11:05:36;16.80;67.50
66928;DHT22;59882;45.624;11.698;2023-04-25T11:08:03;16.90;67.70
66928;DHT22;59882;45.624;11.698;2023-04-25T11:10:33;17.00;67.70
66928;DHT22;59882;45.624;11.698;2023-04-25T11:13:00;17.20;65.80
66928;DHT22;59882;45.624;11.698;2023-04-25T11:15:26;17.20;65.80
66928;DHT22;59882;45.624;11.698;2023-04-25T11:17:52;17.30;65.40
66928;DHT22;59882;45.624;11.698;2023-04-25T11:20:18;17.40;65.00
66928;DHT22;59882;45.624;11.698;2023-04-25T11:22:46;17.50;64.80
66928;DHT22;59882;45.624;11.698;2023-04-25T11:25:13;17.60;64.70
66928;DHT22;59882;45.624;11.698;2023-04-25T11:27:58;17.70;62.20
66928;DHT22;59882;45.624;11.698;2023-04-25T11:30:26;17.70;61.40
66928;DHT22;59882;45.624;11.698;2023-04-25T11:32:52;17.50;60.40
66928;DHT22;59882;45.624;11.698;2023-04-25T11:35:19;17.40;61.20
66928;DHT22;59882;45.624;11.698;2023-04-25T11:37:45;17.30;62.80
66928;DHT22;59882;45.624;11.698;2023-04-25T11:40:11;17.30;63.10
66928;DHT22;59882;45.624;11.698;2023-04-25T11:42:46;17.40;64.40
66928;DHT22;59882;45.624;11.698;2023-04-25T11:45:13;17.50;62.90
66928;DHT22;59882;45.624;11.698;2023-04-25T11:47:39;17.60;62.40
66928;DHT22;59882;45.624;11.698;2023-04-25T11:50:06;17.60;62.40
66928;DHT22;59882;45.624;11.698;2023-04-25T11:52:45;17.60;62.10
66928;DHT22;59882;45.624;11.698;2023-04-25T11:55:19;17.60;62.50
66928;DHT22;59882;45.624;11.698;2023-04-25T11:57:47;17.50;62.60
66928;DHT22;59882;45.624;11.698;2023-04-25T12:00:16;17.50;62.70
66928;DHT22;59882;45.624;11.698;2023-04-25T12:02:47;17.50;63.60
66928;DHT22;59882;45.624;11.698;2023-04-25T12:05:14;17.50;62.70
66928;DHT22;59882;45.624;11.698;2023-04-25T12:07:41;17.60;60.80
66928;DHT22;59882;45.624;11.698;2023-04-25T12:10:13;17.50;61.30
66928;DHT22;59882;45.624;11.698;2023-04-25T12:12:42;17.40;61.00
66928;DHT22;59882;45.624;11.698;2023-04-25T12:15:22;17.40;60.50
66928;DHT22;59882;45.624;11.698;2023-04-25T12:17:49;17.40;60.50
66928;DHT22;59882;45.624;11.698;2023-04-25T12:20:21;17.50;61.40
66928;DHT22;59882;45.624;11.698;2023-04-25T12:22:49;17.60;61.70
66928;DHT22;59882;45.624;11.698;2023-04-25T12:25:38;17.80;61.30
66928;DHT22;59882;45.624;11.698;2023-04-25T12:28:21;18.00;60.30
66928;DHT22;59882;45.624;11.698;2023-04-25T12:31:00;18.40;59.20
66928;DHT22;59882;45.624;11.698;2023-04-25T12:33:32;18.60;59.40
66928;DHT22;59882;45.624;11.698;2023-04-25T12:35:58;18.90;57.90
66928;DHT22;59882;45.624;11.698;2023-04-25T12:38:28;18.90;58.60
66928;DHT22;59882;45.624;11.698;2023-04-25T12:40:59;18.90;55.40
66928;DHT22;59882;45.624;11.698;2023-04-25T12:43:25;18.80;55.40
66928;DHT22;59882;45.624;11.698;2023-04-25T12:45:52;18.80;56.10
66928;DHT22;59882;45.624;11.698;2023-04-25T12:48:19;18.70;57.30
66928;DHT22;59882;45.624;11.698;2023-04-25T12:50:45;18.50;58.00
66928;DHT22;59882;45.624;11.698;2023-04-25T12:53:14;18.40;59.60
66928;DHT22;59882;45.624;11.698;2023-04-25T12:55:40;18.20;59.70
66928;DHT22;59882;45.624;11.698;2023-04-25T12:58:06;18.00;59.90
66928;DHT22;59882;45.624;11.698;2023-04-25T13:00:33;17.90;60.30
66928;DHT22;59882;45.624;11.698;2023-04-25T13:02:58;17.70;60.80
66928;DHT22;59882;45.624;11.698;2023-04-25T13:05:25;17.60;61.20
66928;DHT22;59882;45.624;11.698;2023-04-25T13:07:51;17.40;61.00
66928;DHT22;59882;45.624;11.698;2023-04-25T13:10:17;17.20;61.60
66928;DHT22;59882;45.624;11.698;2023-04-25T13:12:43;17.10;62.60
66928;DHT22;59882;45.624;11.698;2023-04-25T13:15:09;16.90;63.80
66928;DHT22;59882;45.624;11.698;2023-04-25T13:17:37;16.80;63.80
66928;DHT22;59882;45.624;11.698;2023-04-25T13:20:06;16.70;63.30
66928;DHT22;59882;45.624;11.698;2023-04-25T13:22:34;16.60;64.50
66928;DHT22;59882;45.624;11.698;2023-04-25T13:25:02;16.50;65.50
66928;DHT22;59882;45.624;11.698;2023-04-25T13:27:28;16.40;65.00
66928;DHT22;59882;45.624;11.698;2023-04-25T13:29:54;16.20;65.80
66928;DHT22;59882;45.624;11.698;2023-04-25T13:32:20;16.20;66.20
66928;DHT22;59882;45.624;11.698;2023-04-25T13:34:45;16.10;67.30
66928;DHT22;59882;45.624;11.698;2023-04-25T13:37:11;16.00;66.90
66928;DHT22;59882;45.624;11.698;2023-04-25T13:39:36;15.90;66.70
66928;DHT22;59882;45.624;11.698;2023-04-25T13:42:02;15.80;67.40
66928;DHT22;59882;45.624;11.698;2023-04-25T13:44:28;15.80;67.20
66928;DHT22;59882;45.624;11.698;2023-04-25T13:46:54;15.80;69.00
66928;DHT22;59882;45.624;11.698;2023-04-25T13:49:19;15.60;68.70
66928;DHT22;59882;45.624;11.698;2023-04-25T13:51:45;15.60;68.80
66928;DHT22;59882;45.624;11.698;2023-04-25T13:54:11;15.50;68.80
66928;DHT22;59882;45.624;11.698;2023-04-25T13:56:36;15.40;68.70
66928;DHT22;59882;45.624;11.698;2023-04-25T13:59:02;15.30;68.80
66928;DHT22;59882;45.624;11.698;2023-04-25T14:01:28;15.20;68.80
66928;DHT22;59882;45.624;11.698;2023-04-25T14:03:55;15.20;68.90
66928;DHT22;59882;45.624;11.698;2023-04-25T14:06:21;15.20;68.30
66928;DHT22;59882;45.624;11.698;2023-04-25T14:08:49;15.10;68.90
66928;DHT22;59882;45.624;11.698;2023-04-25T14:11:15;15.10;69.70
66928;DHT22;59882;45.624;11.698;2023-04-25T14:13:44;15.00;70.70
66928;DHT22;59882;45.624;11.698;2023-04-25T14:16:09;15.00;69.80
66928;DHT22;59882;45.624;11.698;2023-04-25T14:18:35;14.90;70.50
66928;DHT22;59882;45.624;11.698;2023-04-25T14:21:01;14.90;70.60
66928;DHT22;59882;45.624;11.698;2023-04-25T14:23:26;14.80;70.80
66928;DHT22;59882;45.624;11.698;2023-04-25T14:25:52;14.80;71.30
66928;DHT22;59882;45.624;11.698;2023-04-25T14:28:17;14.60;71.70
66928;DHT22;59882;45.624;11.698;2023-04-25T14:30:43;14.60;72.30
66928;DHT22;59882;45.624;11.698;2023-04-25T14:33:09;14.60;72.30
66928;DHT22;59882;45.624;11.698;2023-04-25T14:35:35;14.60;71.50
66928;DHT22;59882;45.624;11.698;2023-04-25T14:38:01;14.70;72.30
66928;DHT22;59882;45.624;11.698;2023-04-25T14:40:26;14.70;72.30
66928;DHT22;59882;45.624;11.698;2023-04-25T14:42:52;14.80;72.20
66928;DHT22;59882;45.624;11.698;2023-04-25T14:45:18;14.80;71.40
66928;DHT22;59882;45.624;11.698;2023-04-25T14:47:43;14.90;72.10
66928;DHT22;59882;45.624;11.698;2023-04-25T14:50:09;15.00;70.80
66928;DHT22;59882;45.624;11.698;2023-04-25T14:52:35;15.20;72.00
66928;DHT22;59882;45.624;11.698;2023-04-25T14:55:01;15.50;71.90
66928;DHT22;59882;45.624;11.698;2023-04-25T14:57:34;16.10;71.80
66928;DHT22;59882;45.624;11.698;2023-04-25T15:00:01;16.90;68.10
66928;DHT22;59882;45.624;11.698;2023-04-25T15:02:28;17.70;65.70
66928;DHT22;59882;45.624;11.698;2023-04-25T15:04:54;18.10;62.30
66928;DHT22;59882;45.624;11.698;2023-04-25T15:07:21;18.50;62.70
66928;DHT22;59882;45.624;11.698;2023-04-25T15:09:47;18.90;59.60
66928;DHT22;59882;45.624;11.698;2023-04-25T15:12:13;19.30;56.90
66928;DHT22;59882;45.624;11.698;2023-04-25T15:14:39;19.50;57.00
66928;DHT22;59882;45.624;11.698;2023-04-25T15:17:04;19.50;51.70
66928;DHT22;59882;45.624;11.698;2023-04-25T15:19:30;19.40;52.50